Time;durP1;ratioP1;P1;durP2;ratioP2;P2;SDS_P1;SDS_P2;PMS_P1;PMS_P2;Temp;Humidity;BMP_temperature;BMP_pressure;BME280_temperature;BME280_humidity;BME280_pressure;Samples;Min_cycle;Max_cycle;Signal;HPM_P1;HPM_P2
2023/08/31 00:00:12;;;;;;;9.63;3.00;;;;;;;;;;5100631;27;20415;-71
2023/08/31 00:02:40;;;;;;;7.93;2.70;;;;;;;;;;5117033;27;20175;-71
2023/08/31 00:05:06;;;;;;;7.10;3.08;;;;;;;;;;5118048;27;20051;-72
2023/08/31 00:07:32;;;;;;;;;;;;;;;;;;5117136;27;20043;-71
2023/08/31 00:09:58;;;;;;;7.55;2.83;;;;;;;;;;5117478;27;19945;-71
2023/08/31 00:12:25;;;;;;;12.20;3.05;;;;;;;;;;5117089;27;20090;-71
2023/08/31 00:14:51;;;;;;;9.55;2.80;;;;;;;;;;5116809;27;20100;-71
2023/08/31 00:17:17;;;;;;;6.97;2.88;;;;;;;;;;5117656;27;20615;-71
2023/08/31 00:19:43;;;;;;;;;;;;;;;;;;5116623;27;20104;-71
2023/08/31 00:22:09;;;;;;;8.88;3.05;;;;;;;;;;5117501;27;19919;-71
2023/08/31 00:24:36;;;;;;;8.23;3.28;;;;;;;;;;5116624;27;20073;-71
2023/08/31 00:27:06;;;;;;;9.38;3.15;;;;;;;;;;5117095;27;20411;-71
2023/08/31 00:29:32;;;;;;;8.13;2.85;;;;;;;;;;5115562;27;20039;-71
2023/08/31 00:31:58;;;;;;;7.13;2.83;;;;;;;;;;5135713;27;20054;-71
2023/08/31 00:34:24;;;;;;;8.13;2.85;;;;;;;;;;5100043;27;20491;-71
2023/08/31 00:36:50;;;;;;;11.30;2.85;;;;;;;;;;5116817;27;20636;-71
2023/08/31 00:39:20;;;;;;;9.27;3.03;;;;;;;;;;5117056;27;20043;-71
2023/08/31 00:41:47;;;;;;;10.55;3.00;;;;;;;;;;5116593;27;20054;-71
2023/08/31 00:44:13;;;;;;;7.80;2.83;;;;;;;;;;5115833;27;20136;-71
2023/08/31 00:46:39;;;;;;;;;;;;;;;;;;5100057;27;20035;-71
2023/08/31 00:49:05;;;;;;;11.73;3.75;;;;;;;;;;5116662;27;19919;-71
2023/08/31 00:51:32;;;;;;;9.75;3.85;;;;;;;;;;5116833;27;20050;-73
2023/08/31 00:53:58;;;;;;;;;;;;;;;;;;5117155;27;20062;-71
2023/08/31 00:56:26;;;;;;;12.90;4.18;;;;;;;;;;5100026;27;19922;-71
2023/08/31 00:58:54;;;;;;;11.52;4.20;;;;;;;;;;5115403;27;20649;-72
2023/08/31 01:01:23;;;;;;;18.00;4.57;;;;;;;;;;5116999;27;20684;-72
2023/08/31 01:03:52;;;;;;;12.50;3.97;;;;;;;;;;5098788;27;20078;-71
2023/08/31 01:06:19;;;;;;;11.10;4.10;;;;;;;;;;5116636;27;20075;-71
2023/08/31 01:09:00;;;;;;;16.27;4.22;;;;;;;;;;5134132;27;20092;-71
2023/08/31 01:11:32;;;;;;;13.02;4.50;;;;;;;;;;5116512;27;20086;-72
2023/08/31 01:14:04;;;;;;;15.35;4.65;;;;;;;;;;5115098;27;20051;-71
2023/08/31 01:16:30;;;;;;;17.45;4.40;;;;;;;;;;5116588;27;20104;-71
2023/08/31 01:18:57;;;;;;;10.00;3.92;;;;;;;;;;5115241;27;20055;-71
2023/08/31 01:21:37;;;;;;;13.00;4.78;;;;;;;;;;5099176;27;20170;-71
2023/08/31 01:24:04;;;;;;;11.13;3.75;;;;;;;;;;5116185;27;20047;-71
2023/08/31 01:26:30;;;;;;;10.68;4.20;;;;;;;;;;5116092;27;20129;-72
2023/08/31 01:28:56;;;;;;;11.10;4.10;;;;;;;;;;5114723;27;20467;-71
2023/08/31 01:31:22;;;;;;;;;;;;;;;;;;5116802;27;20043;-72
2023/08/31 01:33:49;;;;;;;8.88;4.10;;;;;;;;;;5097929;27;19919;-71
2023/08/31 01:36:21;;;;;;;13.77;4.35;;;;;;;;;;5116130;27;20096;-72
2023/08/31 01:38:49;;;;;;;9.85;3.75;;;;;;;;;;5115418;27;20055;-71
2023/08/31 01:41:17;;;;;;;10.63;3.85;;;;;;;;;;5115277;27;20053;-71
2023/08/31 01:43:44;;;;;;;10.40;4.18;;;;;;;;;;5114409;27;20051;-71
2023/08/31 01:46:11;;;;;;;10.35;4.70;;;;;;;;;;5115966;27;20427;-71
2023/08/31 01:48:40;;;;;;;13.93;4.43;;;;;;;;;;5115269;27;20047;-71
2023/08/31 01:51:07;;;;;;;13.55;4.80;;;;;;;;;;5098925;27;20069;-71
2023/08/31 01:53:34;;;;;;;11.93;4.88;;;;;;;;;;5115314;27;20476;-71
2023/08/31 01:56:00;;;;;;;9.88;4.75;;;;;;;;;;5115217;27;20067;-71
2023/08/31 01:58:26;;;;;;;11.30;5.10;;;;;;;;;;5114706;27;20049;-71
2023/08/31 02:00:52;;;;;;;;;;;;;;;;;;5115717;27;20156;-71
2023/08/31 02:03:18;;;;;;;13.38;5.45;;;;;;;;;;5098159;27;19967;-71
2023/08/31 02:05:44;;;;;;;14.93;5.30;;;;;;;;;;5098174;27;20043;-71
2023/08/31 02:08:10;;;;;;;11.32;5.20;;;;;;;;;;5115399;27;20247;-71
2023/08/31 02:10:36;;;;;;;12.57;4.93;;;;;;;;;;5115656;27;20051;-71
2023/08/31 02:13:02;;;;;;;14.52;5.07;;;;;;;;;;5113805;27;20054;-72
2023/08/31 02:15:29;;;;;;;;;;;;;;;;;;5115987;27;20062;-71
2023/08/31 02:17:55;;;;;;;10.80;4.97;;;;;;;;;;5114517;27;19919;-72
2023/08/31 02:20:21;;;;;;;;;;;;;;;;;;5115411;27;20591;-71
2023/08/31 02:22:48;;;;;;;10.30;5.18;;;;;;;;;;5114624;27;20010;-71
2023/08/31 02:25:16;;;;;;;9.30;5.45;;;;;;;;;;5115253;27;20050;-71
2023/08/31 02:27:42;;;;;;;11.15;6.03;;;;;;;;;;5114145;27;20051;-73
2023/08/31 02:30:08;;;;;;;;;;;;;;;;;;5097458;27;20035;-72
2023/08/31 02:32:35;;;;;;;11.68;5.85;;;;;;;;;;5114754;27;19919;-71
2023/08/31 02:35:02;;;;;;;11.98;6.40;;;;;;;;;;5132886;27;20746;-71
2023/08/31 02:37:28;;;;;;;12.32;6.45;;;;;;;;;;5114993;27;20039;-71
2023/08/31 02:39:54;;;;;;;11.88;6.10;;;;;;;;;;5097557;27;20054;-71
2023/08/31 02:42:20;;;;;;;;;;;;;;;;;;5114855;27;20116;-72
2023/08/31 02:44:46;;;;;;;13.82;6.10;;;;;;;;;;5114122;28;19968;-73
2023/08/31 02:47:12;;;;;;;;;;;;;;;;;;5115223;28;20128;-71
2023/08/31 02:49:38;;;;;;;11.80;7.10;;;;;;;;;;5114511;27;19965;-71
2023/08/31 02:52:04;;;;;;;14.60;7.53;;;;;;;;;;5114121;27;20043;-71
2023/08/31 02:54:30;;;;;;;;;;;;;;;;;;5115103;27;20047;-71
2023/08/31 02:56:56;;;;;;;15.00;7.30;;;;;;;;;;5114254;28;19919;-71
2023/08/31 02:59:22;;;;;;;12.07;7.13;;;;;;;;;;5113860;28;20484;-71
2023/08/31 03:01:48;;;;;;;;;;;;;;;;;;5114959;28;20096;-74
2023/08/31 03:04:14;;;;;;;13.40;7.88;;;;;;;;;;5114277;28;20290;-71
2023/08/31 03:06:40;;;;;;;15.10;7.40;;;;;;;;;;5132764;28;20043;-71
2023/08/31 03:09:07;;;;;;;12.68;7.28;;;;;;;;;;5097049;28;20044;-71
2023/08/31 03:11:33;;;;;;;11.80;6.90;;;;;;;;;;5114680;28;20062;-71
2023/08/31 03:13:59;;;;;;;11.30;7.28;;;;;;;;;;5113185;28;20054;-71
2023/08/31 03:16:25;;;;;;;;;;;;;;;;;;5115184;28;20043;-71
2023/08/31 03:18:51;;;;;;;13.63;7.20;;;;;;;;;;5113264;28;19919;-71
2023/08/31 03:21:17;;;;;;;;;;;;;;;;;;5081106;28;20481;-71
2023/08/31 03:23:43;;;;;;;12.60;7.00;;;;;;;;;;5114439;28;19919;-71
2023/08/31 03:26:10;;;;;;;10.80;6.53;;;;;;;;;;5096668;28;20184;-71
2023/08/31 03:28:38;;;;;;;10.30;6.40;;;;;;;;;;5113611;28;20392;-71
2023/08/31 03:31:04;;;;;;;9.95;6.43;;;;;;;;;;5114120;28;20099;-71
2023/08/31 03:33:30;;;;;;;10.68;6.13;;;;;;;;;;5113764;28;20047;-71
2023/08/31 03:36:04;;;;;;;11.90;6.45;;;;;;;;;;5114052;28;20043;-71
2023/08/31 03:38:31;;;;;;;12.20;6.70;;;;;;;;;;5114342;28;20047;-71
2023/08/31 03:40:57;;;;;;;10.88;6.22;;;;;;;;;;5097096;28;20047;-71
2023/08/31 03:43:23;;;;;;;10.98;6.55;;;;;;;;;;5113373;28;20054;-71
2023/08/31 03:45:50;;;;;;;10.25;6.85;;;;;;;;;;5114372;28;20058;-71
2023/08/31 03:48:16;;;;;;;10.45;6.82;;;;;;;;;;5113417;28;20055;-71
2023/08/31 03:50:42;;;;;;;11.27;6.38;;;;;;;;;;5097546;28;20137;-71
2023/08/31 03:53:08;;;;;;;9.77;5.93;;;;;;;;;;5096739;28;20099;-71
2023/08/31 03:55:37;;;;;;;10.02;6.35;;;;;;;;;;5114470;28;20047;-71
2023/08/31 03:58:03;;;;;;;9.55;5.95;;;;;;;;;;5112333;28;20087;-71
2023/08/31 04:00:29;;;;;;;11.63;5.60;;;;;;;;;;5132433;28;20047;-71
2023/08/31 04:02:55;;;;;;;12.55;5.97;;;;;;;;;;5113416;27;20464;-74
2023/08/31 04:05:21;;;;;;;;;;;;;;;;;;5103332;27;20051;-71
2023/08/31 04:07:47;;;;;;;8.20;5.10;;;;;;;;;;5117015;27;20013;-71
2023/08/31 04:10:13;;;;;;;;;;;;;;;;;;5135095;27;20100;-71
2023/08/31 04:12:39;;;;;;;10.20;5.75;;;;;;;;;;5117056;27;19919;-71
2023/08/31 04:15:06;;;;;;;9.55;5.32;;;;;;;;;;5116941;27;20484;-72
2023/08/31 04:17:32;;;;;;;8.73;5.70;;;;;;;;;;5117296;27;20050;-71
2023/08/31 04:19:58;;;;;;;9.15;5.97;;;;;;;;;;5116633;27;20051;-72
2023/08/31 04:22:26;;;;;;;11.98;5.85;;;;;;;;;;5117365;27;20089;-72
2023/08/31 04:24:52;;;;;;;9.52;5.40;;;;;;;;;;5117487;27;20050;-71
2023/08/31 04:27:18;;;;;;;8.75;5.70;;;;;;;;;;5116156;27;20261;-71
2023/08/31 04:29:45;;;;;;;8.52;5.80;;;;;;;;;;5116771;27;20047;-71
2023/08/31 04:32:10;;;;;;;;;;;;;;;;;;5117458;27;20126;-71
2023/08/31 04:34:36;;;;;;;8.25;5.07;;;;;;;;;;5116846;27;19967;-71
2023/08/31 04:37:03;;;;;;;10.63;5.25;;;;;;;;;;5133799;27;20039;-71
2023/08/31 04:39:29;;;;;;;8.27;5.43;;;;;;;;;;5117218;27;20038;-71
2023/08/31 04:41:55;;;;;;;9.38;5.60;;;;;;;;;;5117219;27;20043;-71
2023/08/31 04:44:21;;;;;;;12.65;4.75;;;;;;;;;;5115771;27;20134;-71
2023/08/31 04:46:47;;;;;;;7.97;5.30;;;;;;;;;;5117045;27;20045;-71
2023/08/31 04:49:13;;;;;;;;;;;;;;;;;;5116555;27;20391;-71
2023/08/31 04:51:39;;;;;;;10.55;5.07;;;;;;;;;;5116709;27;19927;-71
2023/08/31 04:54:05;;;;;;;;;;;;;;;;;;5116540;27;20501;-71
2023/08/31 04:56:32;;;;;;;9.20;5.00;;;;;;;;;;5099852;27;20014;-71
2023/08/31 04:58:59;;;;;;;9.25;4.85;;;;;;;;;;5115968;27;20047;-71
2023/08/31 05:01:25;;;;;;;7.93;4.70;;;;;;;;;;5116458;27;20047;-71
2023/08/31 05:03:51;;;;;;;;;;;;;;;;;;5116575;27;20082;-71
2023/08/31 05:06:17;;;;;;;10.45;4.70;;;;;;;;;;5098931;27;19962;-71
2023/08/31 05:08:43;;;;;;;10.02;4.93;;;;;;;;;;5116679;27;20043;-71
2023/08/31 05:11:09;;;;;;;10.40;5.00;;;;;;;;;;5115827;27;20130;-71
2023/08/31 05:13:35;;;;;;;11.88;4.97;;;;;;;;;;5098727;27;20464;-71
2023/08/31 05:16:02;;;;;;;12.02;5.28;;;;;;;;;;5115390;27;20476;-73
2023/08/31 05:18:28;;;;;;;7.88;4.55;;;;;;;;;;5099263;27;20043;-71
2023/08/31 05:20:54;;;;;;;;;;;;;;;;;;5116359;27;20412;-71
2023/08/31 05:23:20;;;;;;;14.38;5.20;;;;;;;;;;5115637;27;19919;-71
2023/08/31 05:25:46;;;;;;;;;;;;;;;;;;5116769;27;20049;-72
2023/08/31 05:28:12;;;;;;;9.43;5.00;;;;;;;;;;5114650;27;20010;-71
2023/08/31 05:30:48;;;;;;;9.90;5.03;;;;;;;;;;5099425;27;20043;-71
2023/08/31 05:33:14;;;;;;;8.98;5.30;;;;;;;;;;5115015;27;20126;-72
2023/08/31 05:35:40;;;;;;;8.65;5.38;;;;;;;;;;5134419;27;20096;-71
2023/08/31 05:38:06;;;;;;;;;;;;;;;;;;5115864;27;20479;-72
2023/08/31 05:40:32;;;;;;;8.80;5.00;;;;;;;;;;5134358;27;19929;-71
2023/08/31 05:42:58;;;;;;;13.32;5.38;;;;;;;;;;5133302;27;20051;-72
2023/08/31 05:45:24;;;;;;;8.60;5.20;;;;;;;;;;5115311;27;20046;-71
2023/08/31 05:47:50;;;;;;;11.27;5.60;;;;;;;;;;5114978;27;20055;-71
2023/08/31 05:50:16;;;;;;;10.38;5.78;;;;;;;;;;5115489;27;20484;-71
2023/08/31 05:52:44;;;;;;;;;;;;;;;;;;5133949;27;20561;-71
2023/08/31 05:55:10;;;;;;;11.32;5.80;;;;;;;;;;5115348;27;19926;-71
2023/08/31 05:57:37;;;;;;;8.18;5.32;;;;;;;;;;5131962;27;20388;-71
2023/08/31 06:00:04;;;;;;;9.80;5.68;;;;;;;;;;5098523;27;20069;-71
2023/08/31 06:02:30;;;;;;;10.38;6.13;;;;;;;;;;5114356;27;20043;-72
2023/08/31 06:04:56;;;;;;;9.77;5.40;;;;;;;;;;5098705;27;20050;-71
2023/08/31 06:07:22;;;;;;;12.38;5.40;;;;;;;;;;5114679;27;20173;-71
2023/08/31 06:09:48;;;;;;;10.00;5.68;;;;;;;;;;5133609;27;20047;-71
2023/08/31 06:12:14;;;;;;;11.68;5.43;;;;;;;;;;5114447;27;20039;-72
2023/08/31 06:14:40;;;;;;;;;;;;;;;;;;5115444;27;20049;-71
2023/08/31 06:17:08;;;;;;;14.45;5.43;;;;;;;;;;5115522;27;20360;-71
2023/08/31 06:19:36;;;;;;;10.32;5.43;;;;;;;;;;5097379;27;20062;-71
2023/08/31 06:22:03;;;;;;;9.48;5.60;;;;;;;;;;5115299;27;20059;-71
2023/08/31 06:24:29;;;;;;;11.85;5.60;;;;;;;;;;5114613;27;20043;-71
2023/08/31 06:26:56;;;;;;;12.23;5.95;;;;;;;;;;5114754;27;20050;-71
2023/08/31 06:29:22;;;;;;;11.48;5.68;;;;;;;;;;5113648;27;20380;-72
2023/08/31 06:31:48;;;;;;;14.68;6.15;;;;;;;;;;5115258;27;20035;-72
2023/08/31 06:34:15;;;;;;;11.40;5.45;;;;;;;;;;5132306;27;20047;-71
2023/08/31 06:36:41;;;;;;;11.82;6.43;;;;;;;;;;5133249;27;20066;-71
2023/08/31 06:39:07;;;;;;;9.68;5.63;;;;;;;;;;5114964;27;20055;-72
2023/08/31 06:41:33;;;;;;;11.90;6.15;;;;;;;;;;5114459;27;20138;-71
2023/08/31 06:43:59;;;;;;;12.45;5.63;;;;;;;;;;5114008;28;20047;-71
2023/08/31 06:46:25;;;;;;;;;;;;;;;;;;5114874;28;20072;-71
2023/08/31 06:48:52;;;;;;;9.10;5.80;;;;;;;;;;5114509;27;20456;-71
2023/08/31 06:51:18;;;;;;;14.32;6.13;;;;;;;;;;5114362;27;20071;-72
2023/08/31 06:53:44;;;;;;;11.98;6.13;;;;;;;;;;5114728;27;20046;-72
2023/08/31 06:56:10;;;;;;;11.75;5.93;;;;;;;;;;5081165;27;20445;-71
2023/08/31 06:58:36;;;;;;;12.18;6.05;;;;;;;;;;5113552;28;20058;-71
2023/08/31 07:01:02;;;;;;;;;;;;;;;;;;5115428;28;20132;-72
2023/08/31 07:03:29;;;;;;;8.80;5.43;;;;;;;;;;5113739;28;20375;-72
2023/08/31 07:05:55;;;;;;;;;;;;;;;;;;5133183;28;20681;-72
2023/08/31 07:08:21;;;;;;;11.60;4.75;;;;;;;;;;5097124;28;19919;-71
2023/08/31 07:10:47;;;;;;;9.93;4.90;;;;;;;;;;5132929;28;20081;-72
2023/08/31 07:13:13;;;;;;;;;;;;;;;;;;5131794;28;20043;-74
2023/08/31 07:15:40;;;;;;;7.90;4.07;;;;;;;;;;5114797;28;20376;-71
2023/08/31 07:18:07;;;;;;;12.07;4.95;;;;;;;;;;5114217;28;20051;-71
2023/08/31 07:20:33;;;;;;;10.18;4.50;;;;;;;;;;5096890;28;20126;-71
2023/08/31 07:22:59;;;;;;;;;;;;;;;;;;5114756;28;20055;-72
2023/08/31 07:25:25;;;;;;;10.95;4.10;;;;;;;;;;5114100;28;20000;-72
2023/08/31 07:27:52;;;;;;;;;;;;;;;;;;5114046;28;20039;-72
2023/08/31 07:30:18;;;;;;;9.70;4.07;;;;;;;;;;5113187;28;19920;-72
2023/08/31 07:32:44;;;;;;;11.20;4.25;;;;;;;;;;5146888;27;20103;-71
2023/08/31 07:35:10;;;;;;;;;;;;;;;;;;5135375;27;20071;-72
2023/08/31 07:37:37;;;;;;;10.23;4.05;;;;;;;;;;5116085;28;19966;-72
2023/08/31 07:40:08;;;;;;;7.38;3.80;;;;;;;;;;5116755;27;20436;-72
2023/08/31 07:42:34;;;;;;;10.70;4.20;;;;;;;;;;5100957;27;20491;-72
2023/08/31 07:45:00;;;;;;;11.80;3.92;;;;;;;;;;5118018;27;20384;-72
2023/08/31 07:47:26;;;;;;;8.02;3.50;;;;;;;;;;5117662;27;20524;-71
2023/08/31 07:49:52;;;;;;;;;;;;;;;;;;5118395;27;20074;-72
2023/08/31 07:52:19;;;;;;;10.43;4.20;;;;;;;;;;5117744;27;20352;-75
2023/08/31 07:54:45;;;;;;;11.32;3.97;;;;;;;;;;5118191;27;20050;-71
2023/08/31 07:57:11;;;;;;;8.68;3.83;;;;;;;;;;5117903;27;20049;-72
2023/08/31 07:59:39;;;;;;;;;;;;;;;;;;5117268;27;20074;-72
2023/08/31 08:02:06;;;;;;;10.45;3.80;;;;;;;;;;5118173;27;19926;-72
2023/08/31 08:04:32;;;;;;;6.97;3.10;;;;;;;;;;5135177;27;20111;-72
2023/08/31 08:06:58;;;;;;;;;;;;;;;;;;5118172;27;20093;-72
2023/08/31 08:09:24;;;;;;;8.27;2.97;;;;;;;;;;5117236;27;19966;-72
2023/08/31 08:11:50;;;;;;;;;;;;;;;;;;5136257;27;20046;-72
2023/08/31 08:14:17;;;;;;;7.33;2.40;;;;;;;;;;5116857;27;19926;-72
2023/08/31 08:16:42;;;;;;;;;;;;;;;;;;5135806;27;20051;-72
2023/08/31 08:19:09;;;;;;;5.13;2.38;;;;;;;;;;5117060;27;19941;-72
2023/08/31 08:21:34;;;;;;;;;;;;;;;;;;5117601;27;20096;-72
2023/08/31 08:24:01;;;;;;;9.73;2.33;;;;;;;;;;5117480;27;19919;-72
2023/08/31 08:26:27;;;;;;;6.47;1.90;;;;;;;;;;5116731;27;20046;-72
2023/08/31 08:28:53;;;;;;;;;;;;;;;;;;5100056;27;20058;-72
2023/08/31 08:31:19;;;;;;;6.10;1.77;;;;;;;;;;5100559;27;19920;-72
2023/08/31 08:33:45;;;;;;;;;;;;;;;;;;5134935;27;20043;-72
2023/08/31 08:36:11;;;;;;;7.72;1.98;;;;;;;;;;5117309;27;20010;-72
2023/08/31 08:38:37;;;;;;;6.70;2.03;;;;;;;;;;5116775;27;20092;-72
2023/08/31 08:41:03;;;;;;;;;;;;;;;;;;5135708;27;20043;-72
2023/08/31 08:43:29;;;;;;;7.32;1.70;;;;;;;;;;5133810;27;20275;-72
2023/08/31 08:45:55;;;;;;;;;;;;;;;;;;5117556;27;20043;-72
2023/08/31 08:48:21;;;;;;;6.80;1.73;;;;;;;;;;5116673;27;19979;-72
2023/08/31 08:50:48;;;;;;;4.80;1.50;;;;;;;;;;5116539;27;20078;-72
2023/08/31 08:53:15;;;;;;;2.08;1.10;;;;;;;;;;5116772;27;20047;-72
2023/08/31 08:55:44;;;;;;;3.83;1.13;;;;;;;;;;5099667;27;20476;-72
2023/08/31 08:58:10;;;;;;;4.70;1.33;;;;;;;;;;5098699;27;20083;-72
2023/08/31 09:00:36;;;;;;;;;;;;;;;;;;5116981;27;20051;-72
2023/08/31 09:03:05;;;;;;;3.25;1.00;;;;;;;;;;5116334;27;19924;-72
2023/08/31 09:05:34;;;;;;;3.25;1.10;;;;;;;;;;5116302;27;20088;-72
2023/08/31 09:08:03;;;;;;;4.90;1.10;;;;;;;;;;5099281;27;20040;-72
2023/08/31 09:10:36;;;;;;;4.93;0.90;;;;;;;;;;5099300;27;20083;-72
2023/08/31 09:13:05;;;;;;;5.25;0.75;;;;;;;;;;5098116;27;20054;-72
2023/08/31 09:15:41;;;;;;;9.27;0.93;;;;;;;;;;5116269;27;20126;-72
2023/08/31 09:18:07;;;;;;;;;;;;;;;;;;5134820;27;20122;-72
2023/08/31 09:20:43;;;;;;;3.63;0.80;;;;;;;;;;5095354;28;19974;-72
2023/08/31 09:23:09;;;;;;;4.38;0.90;;;;;;;;;;5112804;28;20130;-72
2023/08/31 09:25:43;;;;;;;6.32;1.23;;;;;;;;;;5112327;28;20069;-72
2023/08/31 09:28:10;;;;;;;2.95;1.00;;;;;;;;;;5112789;27;20081;-72
2023/08/31 09:30:36;;;;;;;2.70;0.98;;;;;;;;;;5112490;28;20481;-72
2023/08/31 09:33:04;;;;;;;3.28;0.88;;;;;;;;;;5112421;28;20063;-72
2023/08/31 09:35:30;;;;;;;2.60;1.00;;;;;;;;;;5113302;28;20485;-74
2023/08/31 09:37:57;;;;;;;;;;;;;;;;;;5113027;28;20058;-73
2023/08/31 09:40:23;;;;;;;1.35;0.75;;;;;;;;;;5095806;28;19920;-72
2023/08/31 09:42:52;;;;;;;3.92;1.20;;;;;;;;;;5111280;28;20051;-72
2023/08/31 09:45:25;;;;;;;2.70;0.80;;;;;;;;;;5112207;28;20134;-72
2023/08/31 09:47:51;;;;;;;5.45;0.70;;;;;;;;;;5111503;28;20050;-72
2023/08/31 09:50:17;;;;;;;;;;;;;;;;;;5096184;28;20114;-72
2023/08/31 09:52:44;;;;;;;3.83;1.00;;;;;;;;;;5094839;28;19920;-72
2023/08/31 09:55:11;;;;;;;2.97;1.17;;;;;;;;;;5112517;28;20434;-72
2023/08/31 09:57:38;;;;;;;5.13;1.30;;;;;;;;;;5112161;28;20040;-72
2023/08/31 10:00:04;;;;;;;3.40;1.20;;;;;;;;;;5111881;28;20091;-72
2023/08/31 10:02:31;;;;;;;2.08;1.02;;;;;;;;;;5111481;28;20484;-75
2023/08/31 10:04:58;;;;;;;3.88;1.00;;;;;;;;;;5111888;28;20047;-72
2023/08/31 10:07:24;;;;;;;5.20;0.90;;;;;;;;;;5111618;28;20075;-72
2023/08/31 10:09:51;;;;;;;1.88;0.98;;;;;;;;;;5111640;28;20091;-72
2023/08/31 10:12:17;;;;;;;4.78;0.98;;;;;;;;;;5111481;28;20044;-72
2023/08/31 10:14:46;;;;;;;1.92;0.75;;;;;;;;;;5111060;28;20541;-72
2023/08/31 10:17:13;;;;;;;5.30;1.10;;;;;;;;;;5095626;28;20066;-72
2023/08/31 10:19:39;;;;;;;2.97;1.00;;;;;;;;;;5110841;28;20151;-72
2023/08/31 10:22:06;;;;;;;3.42;1.05;;;;;;;;;;5111943;28;20055;-72
2023/08/31 10:24:51;;;;;;;17.75;1.73;;;;;;;;;;5111652;28;20043;-74
2023/08/31 10:27:18;;;;;;;6.30;1.35;;;;;;;;;;5094053;28;20040;-73
2023/08/31 10:29:44;;;;;;;3.72;1.27;;;;;;;;;;5093785;28;20050;-73
2023/08/31 10:32:10;;;;;;;;;;;;;;;;;;5112315;28;20104;-73
2023/08/31 10:34:37;;;;;;;4.55;1.30;;;;;;;;;;5110678;28;19924;-73
2023/08/31 10:37:20;;;;;;;5.90;2.05;;;;;;;;;;5094746;28;20122;-73
2023/08/31 10:39:46;;;;;;;4.93;1.38;;;;;;;;;;5111122;28;20366;-72
2023/08/31 10:42:12;;;;;;;4.05;1.40;;;;;;;;;;5094399;28;20412;-74
2023/08/31 10:44:38;;;;;;;;;;;;;;;;;;5110903;28;20083;-73
2023/08/31 10:47:04;;;;;;;2.70;1.17;;;;;;;;;;5111157;28;19974;-72
2023/08/31 10:49:32;;;;;;;7.30;1.30;;;;;;;;;;5111047;28;20121;-73
2023/08/31 10:52:15;;;;;;;2.50;1.15;;;;;;;;;;5094088;28;20091;-72
2023/08/31 10:54:41;;;;;;;3.80;1.00;;;;;;;;;;5093952;28;20058;-72
2023/08/31 10:57:08;;;;;;;;;;;;;;;;;;5111804;28;20055;-73
2023/08/31 10:59:47;;;;;;;2.28;0.77;;;;;;;;;;5093471;28;19919;-72
2023/08/31 11:02:31;;;;;;;1.83;0.90;;;;;;;;;;5111355;28;20112;-73
2023/08/31 11:05:16;;;;;;;5.35;1.00;;;;;;;;;;5110749;28;20228;-72
2023/08/31 11:07:43;;;;;;;4.38;0.98;;;;;;;;;;5093411;28;20051;-72
2023/08/31 11:10:10;;;;;;;3.97;1.10;;;;;;;;;;5111331;28;20047;-72
2023/08/31 11:12:36;;;;;;;5.65;1.40;;;;;;;;;;5110666;28;20048;-72
2023/08/31 11:15:03;;;;;;;;;;;;;;;;;;5113840;28;20079;-72
2023/08/31 11:17:32;;;;;;;4.38;1.30;;;;;;;;;;5115532;28;19919;-75
2023/08/31 11:19:58;;;;;;;4.53;1.30;;;;;;;;;;5114474;28;20102;-72
2023/08/31 11:22:24;;;;;;;;;;;;;;;;;;5098722;28;20051;-72
2023/08/31 11:24:50;;;;;;;6.82;1.27;;;;;;;;;;5097748;28;19926;-72
2023/08/31 11:27:16;;;;;;;;;;;;;;;;;;5114921;28;20035;-72
2023/08/31 11:29:45;;;;;;;7.35;1.40;;;;;;;;;;5114296;28;19924;-74
2023/08/31 11:32:11;;;;;;;3.17;0.93;;;;;;;;;;5098217;28;20054;-73
2023/08/31 11:34:37;;;;;;;;;;;;;;;;;;5115173;28;20484;-73
2023/08/31 11:37:03;;;;;;;5.43;1.17;;;;;;;;;;5114540;28;19919;-73
2023/08/31 11:39:29;;;;;;;5.93;1.08;;;;;;;;;;5114744;28;20048;-72
2023/08/31 11:41:55;;;;;;;5.65;1.13;;;;;;;;;;5114444;28;20055;-73
2023/08/31 11:44:21;;;;;;;2.97;1.10;;;;;;;;;;5113994;28;20040;-73
2023/08/31 11:46:50;;;;;;;3.75;1.20;;;;;;;;;;5114375;28;20156;-73
2023/08/31 11:49:17;;;;;;;5.88;1.08;;;;;;;;;;5114393;28;20050;-73
2023/08/31 11:51:44;;;;;;;2.85;1.02;;;;;;;;;;5114661;28;20051;-76
2023/08/31 11:54:10;;;;;;;9.57;1.20;;;;;;;;;;5114354;28;20389;-73
2023/08/31 11:56:40;;;;;;;5.75;1.00;;;;;;;;;;5114661;28;20096;-73
2023/08/31 11:59:10;;;;;;;4.13;1.17;;;;;;;;;;5113109;28;20121;-73
2023/08/31 12:01:38;;;;;;;3.30;1.10;;;;;;;;;;5114808;28;20130;-73
2023/08/31 12:04:10;;;;;;;2.03;1.10;;;;;;;;;;5113368;28;20126;-73
2023/08/31 12:06:36;;;;;;;2.50;1.10;;;;;;;;;;5114472;28;20482;-73
2023/08/31 12:09:04;;;;;;;3.35;1.00;;;;;;;;;;5113622;28;20052;-73
2023/08/31 12:11:30;;;;;;;5.07;1.20;;;;;;;;;;5080872;28;20079;-73
2023/08/31 12:14:00;;;;;;;6.22;1.38;;;;;;;;;;5112888;28;20044;-73
2023/08/31 12:16:32;;;;;;;3.58;1.10;;;;;;;;;;5114554;28;20121;-73
2023/08/31 12:19:05;;;;;;;4.35;1.00;;;;;;;;;;5096446;28;20055;-73
2023/08/31 12:21:34;;;;;;;2.72;0.85;;;;;;;;;;5097298;28;20079;-73
2023/08/31 12:24:00;;;;;;;0.82;0.65;;;;;;;;;;5096615;28;20043;-73
2023/08/31 12:26:27;;;;;;;1.27;0.80;;;;;;;;;;5113446;28;20051;-73
2023/08/31 12:28:53;;;;;;;3.78;1.00;;;;;;;;;;5112574;28;20039;-74
2023/08/31 12:31:19;;;;;;;1.25;0.68;;;;;;;;;;5114193;28;20036;-73
2023/08/31 12:33:45;;;;;;;1.65;0.65;;;;;;;;;;5096632;28;20076;-73
2023/08/31 12:36:11;;;;;;;2.13;0.80;;;;;;;;;;5096533;28;20043;-73
2023/08/31 12:38:37;;;;;;;1.70;0.80;;;;;;;;;;5113585;28;20059;-73
2023/08/31 12:41:03;;;;;;;2.28;0.80;;;;;;;;;;5096316;28;20400;-73
2023/08/31 12:43:29;;;;;;;3.67;0.90;;;;;;;;;;5112852;28;20108;-73
2023/08/31 12:45:56;;;;;;;3.13;0.98;;;;;;;;;;5096231;28;20051;-73
2023/08/31 12:48:22;;;;;;;2.15;0.90;;;;;;;;;;5113316;28;20090;-73
2023/08/31 12:50:48;;;;;;;2.25;0.77;;;;;;;;;;5113624;28;20054;-73
2023/08/31 12:53:15;;;;;;;4.13;1.35;;;;;;;;;;5113174;28;20135;-73
2023/08/31 12:55:41;;;;;;;4.15;1.02;;;;;;;;;;5113741;28;20043;-73
2023/08/31 12:58:07;;;;;;;2.78;0.90;;;;;;;;;;5111773;28;20055;-73
2023/08/31 13:00:33;;;;;;;1.80;1.00;;;;;;;;;;5096696;28;20070;-73
2023/08/31 13:03:01;;;;;;;4.22;1.10;;;;;;;;;;5113500;28;20044;-72
2023/08/31 13:05:28;;;;;;;2.47;0.82;;;;;;;;;;5113236;28;20373;-72
2023/08/31 13:07:55;;;;;;;3.60;1.00;;;;;;;;;;5112513;28;20039;-72
2023/08/31 13:10:21;;;;;;;3.78;1.05;;;;;;;;;;5113291;28;20039;-72
2023/08/31 13:12:47;;;;;;;4.70;1.52;;;;;;;;;;5112415;28;20420;-72
2023/08/31 13:15:13;;;;;;;3.38;1.10;;;;;;;;;;5112390;28;20086;-72
2023/08/31 13:17:39;;;;;;;2.03;0.98;;;;;;;;;;5095840;28;20062;-72
2023/08/31 13:20:06;;;;;;;3.13;1.10;;;;;;;;;;5112350;28;20083;-72
2023/08/31 13:22:32;;;;;;;4.05;1.30;;;;;;;;;;5112978;28;20318;-73
2023/08/31 13:24:58;;;;;;;4.25;1.10;;;;;;;;;;5112465;28;20472;-72
2023/08/31 13:27:24;;;;;;;6.10;1.00;;;;;;;;;;5095216;28;20035;-72
2023/08/31 13:29:50;;;;;;;;;;;;;;;;;;5112910;28;20128;-72
2023/08/31 13:32:16;;;;;;;4.88;1.48;;;;;;;;;;5112389;28;19919;-72
2023/08/31 13:34:42;;;;;;;;;;;;;;;;;;5112940;28;20689;-73
2023/08/31 13:37:08;;;;;;;4.53;1.13;;;;;;;;;;5111356;28;19920;-72
2023/08/31 13:39:36;;;;;;;2.42;0.88;;;;;;;;;;5112444;28;20572;-72
2023/08/31 13:42:03;;;;;;;2.47;0.90;;;;;;;;;;5112066;28;20051;-72
2023/08/31 13:44:31;;;;;;;1.88;0.82;;;;;;;;;;5112805;28;20051;-72
2023/08/31 13:46:57;;;;;;;2.40;1.08;;;;;;;;;;5112381;28;20503;-75
2023/08/31 13:49:23;;;;;;;3.92;1.10;;;;;;;;;;5111979;28;20484;-72
2023/08/31 13:51:49;;;;;;;;;;;;;;;;;;5079270;28;20083;-72
2023/08/31 13:54:15;;;;;;;2.58;0.95;;;;;;;;;;5111758;28;19963;-72
2023/08/31 13:56:41;;;;;;;;;;;;;;;;;;5112855;28;20047;-72
2023/08/31 13:59:07;;;;;;;2.90;0.90;;;;;;;;;;5110817;28;19925;-72
2023/08/31 14:01:33;;;;;;;;;;;;;;;;;;5112868;28;20043;-72
2023/08/31 14:03:59;;;;;;;4.13;1.08;;;;;;;;;;5111449;28;19920;-75
2023/08/31 14:06:25;;;;;;;2.83;0.93;;;;;;;;;;5078371;28;20075;-72
2023/08/31 14:08:52;;;;;;;;;;;;;;;;;;5095693;28;20039;-72
2023/08/31 14:11:18;;;;;;;3.10;1.00;;;;;;;;;;5111547;28;19976;-72
2023/08/31 14:13:46;;;;;;;3.35;1.25;;;;;;;;;;5111146;28;20496;-73
2023/08/31 14:16:12;;;;;;;4.95;1.17;;;;;;;;;;5111340;28;20516;-73
2023/08/31 14:18:38;;;;;;;3.13;0.88;;;;;;;;;;5111594;28;20047;-73
2023/08/31 14:21:04;;;;;;;5.55;1.20;;;;;;;;;;5111042;28;20148;-73
2023/08/31 14:23:31;;;;;;;4.60;1.13;;;;;;;;;;5111798;28;20044;-73
2023/08/31 14:26:04;;;;;;;3.22;1.30;;;;;;;;;;5111766;28;20050;-73
2023/08/31 14:28:30;;;;;;;4.85;1.13;;;;;;;;;;5110932;28;20051;-72
2023/08/31 14:30:56;;;;;;;3.95;1.23;;;;;;;;;;5111697;28;20586;-72
2023/08/31 14:33:22;;;;;;;3.92;1.23;;;;;;;;;;5110766;28;20059;-72
2023/08/31 14:35:53;;;;;;;4.50;1.17;;;;;;;;;;5095068;28;20039;-73
2023/08/31 14:38:22;;;;;;;6.40;1.60;;;;;;;;;;5112094;28;20077;-73
2023/08/31 14:40:48;;;;;;;3.55;1.38;;;;;;;;;;5111535;28;20365;-72
2023/08/31 14:43:14;;;;;;;4.90;1.30;;;;;;;;;;5109920;28;20109;-73
2023/08/31 14:45:40;;;;;;;5.63;1.13;;;;;;;;;;5111393;28;20428;-72
2023/08/31 14:48:07;;;;;;;3.63;1.13;;;;;;;;;;5093108;28;20047;-72
2023/08/31 14:50:33;;;;;;;3.40;1.38;;;;;;;;;;5111639;28;20052;-72
2023/08/31 14:52:59;;;;;;;6.38;1.20;;;;;;;;;;5112250;28;20055;-72
2023/08/31 14:55:25;;;;;;;4.55;1.13;;;;;;;;;;5111143;28;20403;-72